sensor_id;sensor_type;location;lat;lon;timestamp;P1;durP1;ratioP1;P2;durP2;ratioP2
7843;SDS011;3967;48.702;9.326;2023-06-04T00:02:15;4.47;;;3.17;;
7843;SDS011;3967;48.702;9.326;2023-06-04T00:04:42;6.87;;;4.60;;
7843;SDS011;3967;48.702;9.326;2023-06-04T00:07:09;3.90;;;3.50;;
7843;SDS011;3967;48.702;9.326;2023-06-04T00:09:35;4.20;;;3.80;;
7843;SDS011;3967;48.702;9.326;2023-06-04T00:12:02;3.77;;;3.40;;
7843;SDS011;3967;48.702;9.326;2023-06-04T00:14:29;4.80;;;3.33;;
7843;SDS011;3967;48.702;9.326;2023-06-04T00:16:56;3.60;;;3.30;;
7843;SDS011;3967;48.702;9.326;2023-06-04T00:19:23;3.90;;;3.50;;
7843;SDS011;3967;48.702;9.326;2023-06-04T00:21:49;5.27;;;3.10;;
7843;SDS011;3967;48.702;9.326;2023-06-04T00:24:16;5.73;;;3.10;;
7843;SDS011;3967;48.702;9.326;2023-06-04T00:26:44;4.07;;;3.67;;
7843;SDS011;3967;48.702;9.326;2023-06-04T00:29:11;6.17;;;4.03;;
7843;SDS011;3967;48.702;9.326;2023-06-04T00:31:37;4.23;;;3.83;;
7843;SDS011;3967;48.702;9.326;2023-06-04T00:34:04;4.33;;;3.77;;
7843;SDS011;3967;48.702;9.326;2023-06-04T00:36:32;3.90;;;3.27;;
7843;SDS011;3967;48.702;9.326;2023-06-04T00:38:58;4.23;;;3.83;;
7843;SDS011;3967;48.702;9.326;2023-06-04T00:41:25;4.03;;;3.37;;
7843;SDS011;3967;48.702;9.326;2023-06-04T00:43:52;3.90;;;3.47;;
7843;SDS011;3967;48.702;9.326;2023-06-04T00:46:23;4.60;;;4.03;;
7843;SDS011;3967;48.702;9.326;2023-06-04T00:48:53;3.90;;;3.50;;
7843;SDS011;3967;48.702;9.326;2023-06-04T00:51:21;3.90;;;3.50;;
7843;SDS011;3967;48.702;9.326;2023-06-04T00:53:48;3.67;;;3.33;;
7843;SDS011;3967;48.702;9.326;2023-06-04T00:56:16;3.70;;;3.40;;
7843;SDS011;3967;48.702;9.326;2023-06-04T00:58:43;4.70;;;4.10;;
7843;SDS011;3967;48.702;9.326;2023-06-04T01:01:20;8.03;;;3.97;;
7843;SDS011;3967;48.702;9.326;2023-06-04T01:03:49;4.10;;;3.30;;
7843;SDS011;3967;48.702;9.326;2023-06-04T01:06:21;4.77;;;4.00;;
7843;SDS011;3967;48.702;9.326;2023-06-04T01:08:49;4.63;;;3.60;;
7843;SDS011;3967;48.702;9.326;2023-06-04T01:11:33;7.23;;;3.50;;
7843;SDS011;3967;48.702;9.326;2023-06-04T01:14:02;3.33;;;3.03;;
7843;SDS011;3967;48.702;9.326;2023-06-04T01:16:30;3.37;;;3.10;;
7843;SDS011;3967;48.702;9.326;2023-06-04T01:19:01;3.77;;;3.23;;
7843;SDS011;3967;48.702;9.326;2023-06-04T01:21:30;4.43;;;3.70;;
7843;SDS011;3967;48.702;9.326;2023-06-04T01:24:01;4.60;;;3.57;;
7843;SDS011;3967;48.702;9.326;2023-06-04T01:26:33;3.60;;;3.30;;
7843;SDS011;3967;48.702;9.326;2023-06-04T01:28:59;7.03;;;3.50;;
7843;SDS011;3967;48.702;9.326;2023-06-04T01:31:28;3.57;;;3.27;;
7843;SDS011;3967;48.702;9.326;2023-06-04T01:33:59;3.50;;;3.10;;
7843;SDS011;3967;48.702;9.326;2023-06-04T01:36:26;4.63;;;3.53;;
7843;SDS011;3967;48.702;9.326;2023-06-04T01:38:52;4.83;;;3.50;;
7843;SDS011;3967;48.702;9.326;2023-06-04T01:41:19;4.23;;;3.83;;
7843;SDS011;3967;48.702;9.326;2023-06-04T01:43:46;4.03;;;3.63;;
7843;SDS011;3967;48.702;9.326;2023-06-04T01:46:13;6.10;;;3.23;;
7843;SDS011;3967;48.702;9.326;2023-06-04T01:48:39;7.00;;;3.63;;
7843;SDS011;3967;48.702;9.326;2023-06-04T01:51:07;3.97;;;3.03;;
7843;SDS011;3967;48.702;9.326;2023-06-04T01:53:34;3.33;;;2.93;;
7843;SDS011;3967;48.702;9.326;2023-06-04T01:56:01;3.63;;;2.50;;
7843;SDS011;3967;48.702;9.326;2023-06-04T01:58:28;5.27;;;3.10;;
7843;SDS011;3967;48.702;9.326;2023-06-04T02:00:55;2.80;;;2.60;;
7843;SDS011;3967;48.702;9.326;2023-06-04T02:03:26;7.10;;;3.30;;
7843;SDS011;3967;48.702;9.326;2023-06-04T02:05:54;4.17;;;2.87;;
7843;SDS011;3967;48.702;9.326;2023-06-04T02:08:21;3.00;;;2.70;;
7843;SDS011;3967;48.702;9.326;2023-06-04T02:10:48;2.80;;;2.30;;
7843;SDS011;3967;48.702;9.326;2023-06-04T02:13:15;2.70;;;2.50;;
7843;SDS011;3967;48.702;9.326;2023-06-04T02:15:42;6.13;;;3.10;;
7843;SDS011;3967;48.702;9.326;2023-06-04T02:18:15;3.90;;;2.50;;
7843;SDS011;3967;48.702;9.326;2023-06-04T02:20:49;3.63;;;2.23;;
7843;SDS011;3967;48.702;9.326;2023-06-04T02:23:17;3.13;;;2.40;;
7843;SDS011;3967;48.702;9.326;2023-06-04T02:25:45;3.70;;;2.20;;
7843;SDS011;3967;48.702;9.326;2023-06-04T02:28:12;3.60;;;2.50;;
7843;SDS011;3967;48.702;9.326;2023-06-04T02:30:39;3.20;;;2.00;;
7843;SDS011;3967;48.702;9.326;2023-06-04T02:33:06;1.97;;;1.87;;
7843;SDS011;3967;48.702;9.326;2023-06-04T02:35:36;4.33;;;2.17;;
7843;SDS011;3967;48.702;9.326;2023-06-04T02:38:03;2.20;;;2.00;;
7843;SDS011;3967;48.702;9.326;2023-06-04T02:40:30;3.47;;;2.10;;
7843;SDS011;3967;48.702;9.326;2023-06-04T02:42:57;3.90;;;2.00;;
7843;SDS011;3967;48.702;9.326;2023-06-04T02:45:24;2.20;;;2.00;;
7843;SDS011;3967;48.702;9.326;2023-06-04T02:47:51;3.20;;;2.20;;
7843;SDS011;3967;48.702;9.326;2023-06-04T02:50:18;4.00;;;1.77;;
7843;SDS011;3967;48.702;9.326;2023-06-04T02:52:45;2.07;;;1.87;;
7843;SDS011;3967;48.702;9.326;2023-06-04T02:55:12;2.00;;;1.83;;
7843;SDS011;3967;48.702;9.326;2023-06-04T02:57:42;2.27;;;2.07;;
7843;SDS011;3967;48.702;9.326;2023-06-04T03:00:10;2.50;;;1.63;;
7843;SDS011;3967;48.702;9.326;2023-06-04T03:02:42;2.13;;;1.93;;
7843;SDS011;3967;48.702;9.326;2023-06-04T03:05:11;4.43;;;2.40;;
7843;SDS011;3967;48.702;9.326;2023-06-04T03:07:39;2.63;;;1.83;;
7843;SDS011;3967;48.702;9.326;2023-06-04T03:10:09;2.50;;;2.20;;
7843;SDS011;3967;48.702;9.326;2023-06-04T03:12:36;4.50;;;2.17;;
7843;SDS011;3967;48.702;9.326;2023-06-04T03:15:03;2.67;;;1.97;;
7843;SDS011;3967;48.702;9.326;2023-06-04T03:17:31;2.87;;;1.93;;
7843;SDS011;3967;48.702;9.326;2023-06-04T03:19:58;2.10;;;1.90;;
7843;SDS011;3967;48.702;9.326;2023-06-04T03:22:25;3.07;;;2.10;;
7843;SDS011;3967;48.702;9.326;2023-06-04T03:24:52;2.40;;;1.80;;
7843;SDS011;3967;48.702;9.326;2023-06-04T03:27:19;2.83;;;2.00;;
7843;SDS011;3967;48.702;9.326;2023-06-04T03:29:46;2.60;;;2.37;;
7843;SDS011;3967;48.702;9.326;2023-06-04T03:32:14;2.33;;;2.10;;
7843;SDS011;3967;48.702;9.326;2023-06-04T03:34:42;3.27;;;2.37;;
7843;SDS011;3967;48.702;9.326;2023-06-04T03:37:09;3.17;;;2.40;;
7843;SDS011;3967;48.702;9.326;2023-06-04T03:39:36;5.17;;;2.40;;
7843;SDS011;3967;48.702;9.326;2023-06-04T03:42:03;4.07;;;2.83;;
7843;SDS011;3967;48.702;9.326;2023-06-04T03:44:30;3.10;;;2.30;;
7843;SDS011;3967;48.702;9.326;2023-06-04T03:46:57;2.87;;;2.60;;
7843;SDS011;3967;48.702;9.326;2023-06-04T03:49:24;4.87;;;2.40;;
7843;SDS011;3967;48.702;9.326;2023-06-04T03:51:51;3.80;;;2.57;;
7843;SDS011;3967;48.702;9.326;2023-06-04T03:54:17;2.83;;;2.53;;
7843;SDS011;3967;48.702;9.326;2023-06-04T03:56:45;3.50;;;2.30;;
7843;SDS011;3967;48.702;9.326;2023-06-04T03:59:12;3.40;;;2.20;;
7843;SDS011;3967;48.702;9.326;2023-06-04T04:01:39;2.20;;;2.00;;
7843;SDS011;3967;48.702;9.326;2023-06-04T04:04:06;2.37;;;2.17;;
7843;SDS011;3967;48.702;9.326;2023-06-04T04:06:32;3.43;;;2.40;;
7843;SDS011;3967;48.702;9.326;2023-06-04T04:08:59;3.27;;;2.03;;
7843;SDS011;3967;48.702;9.326;2023-06-04T04:11:26;2.57;;;1.90;;
7843;SDS011;3967;48.702;9.326;2023-06-04T04:13:53;2.07;;;1.70;;
7843;SDS011;3967;48.702;9.326;2023-06-04T04:16:19;3.17;;;1.87;;
7843;SDS011;3967;48.702;9.326;2023-06-04T04:18:46;2.40;;;1.60;;
7843;SDS011;3967;48.702;9.326;2023-06-04T04:21:13;1.97;;;1.70;;
7843;SDS011;3967;48.702;9.326;2023-06-04T04:23:40;1.53;;;1.40;;
7843;SDS011;3967;48.702;9.326;2023-06-04T04:26:07;2.97;;;1.50;;
7843;SDS011;3967;48.702;9.326;2023-06-04T04:28:34;3.07;;;1.20;;
7843;SDS011;3967;48.702;9.326;2023-06-04T04:31:01;3.60;;;1.90;;
7843;SDS011;3967;48.702;9.326;2023-06-04T04:33:29;1.53;;;1.43;;
7843;SDS011;3967;48.702;9.326;2023-06-04T04:35:58;2.67;;;1.30;;
7843;SDS011;3967;48.702;9.326;2023-06-04T04:38:26;2.73;;;1.20;;
7843;SDS011;3967;48.702;9.326;2023-06-04T04:40:54;2.10;;;1.63;;
7843;SDS011;3967;48.702;9.326;2023-06-04T04:43:28;1.33;;;1.23;;
7843;SDS011;3967;48.702;9.326;2023-06-04T04:45:58;1.97;;;1.67;;
7843;SDS011;3967;48.702;9.326;2023-06-04T04:48:26;1.83;;;1.57;;
7843;SDS011;3967;48.702;9.326;2023-06-04T04:50:53;2.57;;;1.60;;
7843;SDS011;3967;48.702;9.326;2023-06-04T04:53:20;1.60;;;1.50;;
7843;SDS011;3967;48.702;9.326;2023-06-04T04:55:47;2.73;;;1.97;;
7843;SDS011;3967;48.702;9.326;2023-06-04T04:58:14;3.50;;;2.00;;
7843;SDS011;3967;48.702;9.326;2023-06-04T05:00:41;2.87;;;1.70;;
7843;SDS011;3967;48.702;9.326;2023-06-04T05:03:08;2.37;;;1.80;;
7843;SDS011;3967;48.702;9.326;2023-06-04T05:05:35;2.13;;;1.73;;
7843;SDS011;3967;48.702;9.326;2023-06-04T05:08:02;2.80;;;1.60;;
7843;SDS011;3967;48.702;9.326;2023-06-04T05:10:28;2.47;;;1.93;;
7843;SDS011;3967;48.702;9.326;2023-06-04T05:12:56;3.97;;;2.10;;
7843;SDS011;3967;48.702;9.326;2023-06-04T05:15:25;3.03;;;1.90;;
7843;SDS011;3967;48.702;9.326;2023-06-04T05:17:53;2.07;;;1.87;;
7843;SDS011;3967;48.702;9.326;2023-06-04T05:20:20;2.20;;;2.00;;
7843;SDS011;3967;48.702;9.326;2023-06-04T05:22:48;3.53;;;1.60;;
7843;SDS011;3967;48.702;9.326;2023-06-04T05:25:16;2.43;;;1.70;;
7843;SDS011;3967;48.702;9.326;2023-06-04T05:27:42;4.93;;;2.00;;
7843;SDS011;3967;48.702;9.326;2023-06-04T05:30:10;4.03;;;1.93;;
7843;SDS011;3967;48.702;9.326;2023-06-04T05:32:37;2.23;;;1.60;;
7843;SDS011;3967;48.702;9.326;2023-06-04T05:35:07;2.20;;;1.60;;
7843;SDS011;3967;48.702;9.326;2023-06-04T05:37:35;1.60;;;1.50;;
7843;SDS011;3967;48.702;9.326;2023-06-04T05:40:04;1.37;;;1.27;;
7843;SDS011;3967;48.702;9.326;2023-06-04T05:42:32;1.97;;;1.70;;
7843;SDS011;3967;48.702;9.326;2023-06-04T05:44:59;1.93;;;1.43;;
7843;SDS011;3967;48.702;9.326;2023-06-04T05:47:27;3.53;;;1.40;;
7843;SDS011;3967;48.702;9.326;2023-06-04T05:49:57;1.40;;;1.30;;
7843;SDS011;3967;48.702;9.326;2023-06-04T05:52:24;2.97;;;1.60;;
7843;SDS011;3967;48.702;9.326;2023-06-04T05:54:51;4.27;;;1.90;;
7843;SDS011;3967;48.702;9.326;2023-06-04T05:57:18;1.73;;;1.63;;
7843;SDS011;3967;48.702;9.326;2023-06-04T05:59:44;4.30;;;1.80;;
7843;SDS011;3967;48.702;9.326;2023-06-04T06:02:12;3.17;;;2.10;;
7843;SDS011;3967;48.702;9.326;2023-06-04T06:04:39;3.37;;;1.73;;
7843;SDS011;3967;48.702;9.326;2023-06-04T06:07:06;5.07;;;2.37;;
7843;SDS011;3967;48.702;9.326;2023-06-04T06:09:33;7.17;;;2.40;;
7843;SDS011;3967;48.702;9.326;2023-06-04T06:12:00;4.23;;;2.50;;
7843;SDS011;3967;48.702;9.326;2023-06-04T06:14:26;3.63;;;2.00;;
7843;SDS011;3967;48.702;9.326;2023-06-04T06:16:53;3.47;;;2.00;;
7843;SDS011;3967;48.702;9.326;2023-06-04T06:19:20;2.67;;;1.80;;
7843;SDS011;3967;48.702;9.326;2023-06-04T06:21:47;3.13;;;1.70;;
7843;SDS011;3967;48.702;9.326;2023-06-04T06:24:13;3.90;;;2.13;;
7843;SDS011;3967;48.702;9.326;2023-06-04T06:26:40;3.00;;;1.70;;
7843;SDS011;3967;48.702;9.326;2023-06-04T06:29:07;1.80;;;1.63;;
7843;SDS011;3967;48.702;9.326;2023-06-04T06:31:34;3.57;;;1.77;;
7843;SDS011;3967;48.702;9.326;2023-06-04T06:34:00;2.40;;;1.60;;
7843;SDS011;3967;48.702;9.326;2023-06-04T06:36:27;3.00;;;1.53;;
7843;SDS011;3967;48.702;9.326;2023-06-04T06:38:54;3.43;;;1.70;;
7843;SDS011;3967;48.702;9.326;2023-06-04T06:41:21;3.17;;;1.50;;
7843;SDS011;3967;48.702;9.326;2023-06-04T06:43:48;1.50;;;1.40;;
7843;SDS011;3967;48.702;9.326;2023-06-04T06:46:15;1.60;;;1.50;;
7843;SDS011;3967;48.702;9.326;2023-06-04T06:48:42;3.07;;;1.60;;
7843;SDS011;3967;48.702;9.326;2023-06-04T06:51:11;2.40;;;1.80;;
7843;SDS011;3967;48.702;9.326;2023-06-04T06:53:38;1.93;;;1.53;;
7843;SDS011;3967;48.702;9.326;2023-06-04T06:56:06;2.07;;;1.30;;
7843;SDS011;3967;48.702;9.326;2023-06-04T06:58:33;1.93;;;1.60;;
7843;SDS011;3967;48.702;9.326;2023-06-04T07:01:00;3.30;;;1.80;;
7843;SDS011;3967;48.702;9.326;2023-06-04T07:03:27;2.47;;;1.63;;
7843;SDS011;3967;48.702;9.326;2023-06-04T07:05:54;3.17;;;1.60;;
7843;SDS011;3967;48.702;9.326;2023-06-04T07:08:21;2.23;;;1.60;;
7843;SDS011;3967;48.702;9.326;2023-06-04T07:10:48;2.73;;;1.87;;
7843;SDS011;3967;48.702;9.326;2023-06-04T07:13:14;2.93;;;1.80;;
7843;SDS011;3967;48.702;9.326;2023-06-04T07:15:42;3.70;;;1.97;;
7843;SDS011;3967;48.702;9.326;2023-06-04T07:18:09;3.47;;;1.67;;
7843;SDS011;3967;48.702;9.326;2023-06-04T07:20:36;2.07;;;1.73;;
7843;SDS011;3967;48.702;9.326;2023-06-04T07:23:03;3.90;;;2.00;;
7843;SDS011;3967;48.702;9.326;2023-06-04T07:25:29;3.63;;;1.93;;
7843;SDS011;3967;48.702;9.326;2023-06-04T07:27:56;5.10;;;1.90;;
7843;SDS011;3967;48.702;9.326;2023-06-04T07:30:27;3.10;;;1.77;;
7843;SDS011;3967;48.702;9.326;2023-06-04T07:32:54;2.00;;;1.80;;
7843;SDS011;3967;48.702;9.326;2023-06-04T07:35:20;2.97;;;2.00;;
7843;SDS011;3967;48.702;9.326;2023-06-04T07:37:47;4.20;;;1.90;;
7843;SDS011;3967;48.702;9.326;2023-06-04T07:40:15;2.50;;;2.00;;
7843;SDS011;3967;48.702;9.326;2023-06-04T07:42:43;2.47;;;1.80;;
7843;SDS011;3967;48.702;9.326;2023-06-04T07:45:11;2.97;;;2.10;;
7843;SDS011;3967;48.702;9.326;2023-06-04T07:47:40;1.57;;;1.43;;
7843;SDS011;3967;48.702;9.326;2023-06-04T07:50:08;3.03;;;1.80;;
7843;SDS011;3967;48.702;9.326;2023-06-04T07:52:34;1.73;;;1.60;;
7843;SDS011;3967;48.702;9.326;2023-06-04T07:55:01;2.23;;;1.90;;
7843;SDS011;3967;48.702;9.326;2023-06-04T07:57:29;3.70;;;1.93;;
7843;SDS011;3967;48.702;9.326;2023-06-04T07:59:56;2.93;;;2.67;;
7843;SDS011;3967;48.702;9.326;2023-06-04T08:02:24;2.23;;;2.03;;
7843;SDS011;3967;48.702;9.326;2023-06-04T08:04:51;2.33;;;2.10;;
7843;SDS011;3967;48.702;9.326;2023-06-04T08:07:18;2.33;;;1.70;;
7843;SDS011;3967;48.702;9.326;2023-06-04T08:09:44;3.03;;;1.73;;
7843;SDS011;3967;48.702;9.326;2023-06-04T08:12:11;2.33;;;1.60;;
7843;SDS011;3967;48.702;9.326;2023-06-04T08:14:38;2.37;;;1.90;;
7843;SDS011;3967;48.702;9.326;2023-06-04T08:17:05;2.07;;;1.67;;
7843;SDS011;3967;48.702;9.326;2023-06-04T08:19:32;2.90;;;2.23;;
7843;SDS011;3967;48.702;9.326;2023-06-04T08:21:58;3.20;;;2.60;;
7843;SDS011;3967;48.702;9.326;2023-06-04T08:24:26;4.67;;;2.73;;
7843;SDS011;3967;48.702;9.326;2023-06-04T08:26:53;4.27;;;1.93;;
7843;SDS011;3967;48.702;9.326;2023-06-04T08:29:19;3.83;;;1.67;;
7843;SDS011;3967;48.702;9.326;2023-06-04T08:31:46;2.77;;;2.10;;
7843;SDS011;3967;48.702;9.326;2023-06-04T08:34:13;4.60;;;1.80;;
7843;SDS011;3967;48.702;9.326;2023-06-04T08:36:40;2.05;;;1.63;;
7843;SDS011;3967;48.702;9.326;2023-06-04T08:39:07;1.55;;;1.45;;
7843;SDS011;3967;48.702;9.326;2023-06-04T08:41:52;3.23;;;1.60;;
7843;SDS011;3967;48.702;9.326;2023-06-04T08:44:21;1.83;;;1.73;;
7843;SDS011;3967;48.702;9.326;2023-06-04T08:46:51;2.38;;;2.17;;
7843;SDS011;3967;48.702;9.326;2023-06-04T08:49:21;3.03;;;2.33;;
7843;SDS011;3967;48.702;9.326;2023-06-04T08:51:51;1.98;;;1.65;;
7843;SDS011;3967;48.702;9.326;2023-06-04T08:54:17;2.20;;;1.85;;
7843;SDS011;3967;48.702;9.326;2023-06-04T08:56:44;3.78;;;1.95;;
7843;SDS011;3967;48.702;9.326;2023-06-04T08:59:12;3.45;;;2.10;;
7843;SDS011;3967;48.702;9.326;2023-06-04T09:01:40;2.95;;;2.08;;
7843;SDS011;3967;48.702;9.326;2023-06-04T09:04:10;3.85;;;1.70;;
7843;SDS011;3967;48.702;9.326;2023-06-04T09:06:39;1.90;;;1.70;;
7843;SDS011;3967;48.702;9.326;2023-06-04T09:09:09;1.77;;;1.67;;
7843;SDS011;3967;48.702;9.326;2023-06-04T09:11:44;3.13;;;1.70;;
7843;SDS011;3967;48.702;9.326;2023-06-04T09:14:17;3.75;;;1.80;;
7843;SDS011;3967;48.702;9.326;2023-06-04T09:16:45;4.18;;;2.03;;
7843;SDS011;3967;48.702;9.326;2023-06-04T09:19:17;3.55;;;1.73;;
7843;SDS011;3967;48.702;9.326;2023-06-04T09:21:52;6.70;;;2.00;;
7843;SDS011;3967;48.702;9.326;2023-06-04T09:24:19;3.35;;;1.90;;
7843;SDS011;3967;48.702;9.326;2023-06-04T09:26:47;2.42;;;1.90;;
7843;SDS011;3967;48.702;9.326;2023-06-04T09:29:16;5.32;;;2.25;;
7843;SDS011;3967;48.702;9.326;2023-06-04T09:31:47;2.92;;;1.70;;
7843;SDS011;3967;48.702;9.326;2023-06-04T09:34:27;3.67;;;2.15;;
7843;SDS011;3967;48.702;9.326;2023-06-04T09:36:55;2.10;;;1.90;;
7843;SDS011;3967;48.702;9.326;2023-06-04T09:39:22;2.38;;;2.17;;
7843;SDS011;3967;48.702;9.326;2023-06-04T09:41:57;2.00;;;1.83;;
7843;SDS011;3967;48.702;9.326;2023-06-04T09:44:26;2.38;;;2.17;;
7843;SDS011;3967;48.702;9.326;2023-06-04T09:46:53;3.03;;;2.00;;
7843;SDS011;3967;48.702;9.326;2023-06-04T09:49:23;2.63;;;2.42;;
7843;SDS011;3967;48.702;9.326;2023-06-04T09:51:50;2.75;;;2.42;;
7843;SDS011;3967;48.702;9.326;2023-06-04T09:54:17;3.83;;;2.95;;
7843;SDS011;3967;48.702;9.326;2023-06-04T09:56:44;3.63;;;2.53;;
7843;SDS011;3967;48.702;9.326;2023-06-04T09:59:11;2.88;;;2.67;;
7843;SDS011;3967;48.702;9.326;2023-06-04T10:01:39;5.00;;;2.47;;
7843;SDS011;3967;48.702;9.326;2023-06-04T10:04:10;2.72;;;2.08;;
7843;SDS011;3967;48.702;9.326;2023-06-04T10:06:40;2.55;;;2.30;;
7843;SDS011;3967;48.702;9.326;2023-06-04T10:09:07;5.63;;;2.58;;
7843;SDS011;3967;48.702;9.326;2023-06-04T10:11:37;2.47;;;2.28;;
7843;SDS011;3967;48.702;9.326;2023-06-04T10:16:45;2.22;;;2.03;;
7843;SDS011;3967;48.702;9.326;2023-06-04T10:19:14;3.33;;;2.30;;
7843;SDS011;3967;48.702;9.326;2023-06-04T10:21:42;3.05;;;2.33;;
7843;SDS011;3967;48.702;9.326;2023-06-04T10:24:09;3.97;;;2.65;;
7843;SDS011;3967;48.702;9.326;2023-06-04T10:26:38;4.63;;;2.92;;
7843;SDS011;3967;48.702;9.326;2023-06-04T10:29:06;7.53;;;2.72;;
7843;SDS011;3967;48.702;9.326;2023-06-04T10:31:36;3.47;;;2.90;;
7843;SDS011;3967;48.702;9.326;2023-06-04T10:34:03;2.83;;;2.50;;
7843;SDS011;3967;48.702;9.326;2023-06-04T10:36:30;5.10;;;2.88;;
7843;SDS011;3967;48.702;9.326;2023-06-04T10:38:57;5.72;;;3.03;;
7843;SDS011;3967;48.702;9.326;2023-06-04T10:41:24;2.60;;;2.40;;
7843;SDS011;3967;48.702;9.326;2023-06-04T10:44:00;3.53;;;2.65;;
7843;SDS011;3967;48.702;9.326;2023-06-04T10:46:37;2.70;;;2.40;;
7843;SDS011;3967;48.702;9.326;2023-06-04T10:49:11;3.13;;;2.90;;
7843;SDS011;3967;48.702;9.326;2023-06-04T10:51:38;3.40;;;2.28;;
7843;SDS011;3967;48.702;9.326;2023-06-04T10:54:05;8.02;;;2.63;;
7843;SDS011;3967;48.702;9.326;2023-06-04T10:56:33;4.18;;;3.15;;
7843;SDS011;3967;48.702;9.326;2023-06-04T10:59:13;3.45;;;2.40;;
7843;SDS011;3967;48.702;9.326;2023-06-04T11:01:41;2.97;;;2.42;;
7843;SDS011;3967;48.702;9.326;2023-06-04T11:07:02;3.28;;;2.40;;
7843;SDS011;3967;48.702;9.326;2023-06-04T11:09:36;2.50;;;2.30;;
7843;SDS011;3967;48.702;9.326;2023-06-04T11:12:13;2.55;;;2.17;;
7843;SDS011;3967;48.702;9.326;2023-06-04T11:14:40;4.25;;;3.13;;
7843;SDS011;3967;48.702;9.326;2023-06-04T11:17:10;3.28;;;2.95;;
7843;SDS011;3967;48.702;9.326;2023-06-04T11:19:37;2.88;;;2.25;;
7843;SDS011;3967;48.702;9.326;2023-06-04T11:22:05;3.95;;;2.35;;
7843;SDS011;3967;48.702;9.326;2023-06-04T11:24:32;3.17;;;2.88;;
7843;SDS011;3967;48.702;9.326;2023-06-04T11:26:59;3.08;;;2.70;;
7843;SDS011;3967;48.702;9.326;2023-06-04T11:29:42;3.05;;;2.80;;
7843;SDS011;3967;48.702;9.326;2023-06-04T11:32:09;4.68;;;2.50;;
7843;SDS011;3967;48.702;9.326;2023-06-04T11:34:46;4.70;;;3.22;;
7843;SDS011;3967;48.702;9.326;2023-06-04T11:37:13;4.05;;;3.25;;
7843;SDS011;3967;48.702;9.326;2023-06-04T11:39:40;2.78;;;2.53;;
7843;SDS011;3967;48.702;9.326;2023-06-04T11:42:09;5.70;;;4.25;;
7843;SDS011;3967;48.702;9.326;2023-06-04T11:44:36;4.05;;;3.22;;
7843;SDS011;3967;48.702;9.326;2023-06-04T11:47:07;4.80;;;4.40;;
7843;SDS011;3967;48.702;9.326;2023-06-04T11:49:34;17.45;;;14.88;;
7843;SDS011;3967;48.702;9.326;2023-06-04T11:52:03;11.73;;;8.73;;
7843;SDS011;3967;48.702;9.326;2023-06-04T11:54:30;3.17;;;2.92;;
7843;SDS011;3967;48.702;9.326;2023-06-04T11:57:03;5.43;;;2.60;;
7843;SDS011;3967;48.702;9.326;2023-06-04T11:59:31;5.38;;;2.60;;
7843;SDS011;3967;48.702;9.326;2023-06-04T12:01:58;3.78;;;2.70;;
7843;SDS011;3967;48.702;9.326;2023-06-04T12:04:29;2.75;;;2.55;;
7843;SDS011;3967;48.702;9.326;2023-06-04T12:06:57;3.30;;;3.00;;
7843;SDS011;3967;48.702;9.326;2023-06-04T12:09:31;6.13;;;2.95;;
7843;SDS011;3967;48.702;9.326;2023-06-04T12:12:01;4.45;;;2.95;;
7843;SDS011;3967;48.702;9.326;2023-06-04T12:14:29;3.30;;;3.00;;
7843;SDS011;3967;48.702;9.326;2023-06-04T12:17:00;2.85;;;2.60;;
7843;SDS011;3967;48.702;9.326;2023-06-04T12:19:28;3.40;;;2.90;;
7843;SDS011;3967;48.702;9.326;2023-06-04T12:22:02;2.60;;;2.40;;
7843;SDS011;3967;48.702;9.326;2023-06-04T12:24:29;3.30;;;3.00;;
7843;SDS011;3967;48.702;9.326;2023-06-04T12:27:01;10.20;;;3.10;;
7843;SDS011;3967;48.702;9.326;2023-06-04T12:29:32;4.15;;;2.90;;
7843;SDS011;3967;48.702;9.326;2023-06-04T12:34:31;3.42;;;2.67;;
7843;SDS011;3967;48.702;9.326;2023-06-04T12:36:58;2.75;;;2.50;;
7843;SDS011;3967;48.702;9.326;2023-06-04T12:39:24;3.60;;;2.15;;
7843;SDS011;3967;48.702;9.326;2023-06-04T12:41:51;4.80;;;2.95;;
7843;SDS011;3967;48.702;9.326;2023-06-04T12:44:18;2.97;;;2.60;;
7843;SDS011;3967;48.702;9.326;2023-06-04T12:46:45;4.35;;;2.45;;
7843;SDS011;3967;48.702;9.326;2023-06-04T12:49:15;3.00;;;2.50;;
7843;SDS011;3967;48.702;9.326;2023-06-04T12:51:42;2.92;;;2.65;;
7843;SDS011;3967;48.702;9.326;2023-06-04T12:54:09;3.10;;;2.45;;
7843;SDS011;3967;48.702;9.326;2023-06-04T12:56:36;3.13;;;2.85;;
7843;SDS011;3967;48.702;9.326;2023-06-04T12:59:03;2.80;;;2.58;;
7843;SDS011;3967;48.702;9.326;2023-06-04T13:01:30;7.68;;;2.65;;
7843;SDS011;3967;48.702;9.326;2023-06-04T13:03:57;3.25;;;2.45;;
7843;SDS011;3967;48.702;9.326;2023-06-04T13:06:24;2.67;;;2.42;;
7843;SDS011;3967;48.702;9.326;2023-06-04T13:08:51;3.53;;;2.67;;
7843;SDS011;3967;48.702;9.326;2023-06-04T13:11:18;2.53;;;2.30;;
7843;SDS011;3967;48.702;9.326;2023-06-04T13:13:45;2.88;;;2.42;;
7843;SDS011;3967;48.702;9.326;2023-06-04T13:16:12;2.38;;;2.17;;
7843;SDS011;3967;48.702;9.326;2023-06-04T13:18:39;2.90;;;2.25;;
7843;SDS011;3967;48.702;9.326;2023-06-04T13:21:05;2.83;;;2.38;;
7843;SDS011;3967;48.702;9.326;2023-06-04T13:23:33;3.83;;;2.55;;
7843;SDS011;3967;48.702;9.326;2023-06-04T13:26:14;4.07;;;2.40;;
7843;SDS011;3967;48.702;9.326;2023-06-04T13:28:41;3.00;;;2.70;;
7843;SDS011;3967;48.702;9.326;2023-06-04T13:31:08;4.65;;;2.67;;
7843;SDS011;3967;48.702;9.326;2023-06-04T13:33:35;2.65;;;2.45;;
7843;SDS011;3967;48.702;9.326;2023-06-04T13:36:02;2.92;;;2.35;;
7843;SDS011;3967;48.702;9.326;2023-06-04T13:38:30;3.70;;;2.45;;
7843;SDS011;3967;48.702;9.326;2023-06-04T13:40:57;2.80;;;2.40;;
7843;SDS011;3967;48.702;9.326;2023-06-04T13:43:24;3.00;;;2.80;;
7843;SDS011;3967;48.702;9.326;2023-06-04T13:45:50;2.58;;;2.38;;
7843;SDS011;3967;48.702;9.326;2023-06-04T13:48:17;2.63;;;2.47;;
7843;SDS011;3967;48.702;9.326;2023-06-04T13:50:45;4.20;;;2.55;;
7843;SDS011;3967;48.702;9.326;2023-06-04T13:53:11;3.05;;;2.75;;
7843;SDS011;3967;48.702;9.326;2023-06-04T13:55:41;3.50;;;2.50;;
7843;SDS011;3967;48.702;9.326;2023-06-04T13:58:08;9.75;;;2.65;;
7843;SDS011;3967;48.702;9.326;2023-06-04T14:00:34;2.83;;;2.63;;
7843;SDS011;3967;48.702;9.326;2023-06-04T14:03:01;2.90;;;2.40;;
7843;SDS011;3967;48.702;9.326;2023-06-04T14:05:28;3.65;;;2.58;;
7843;SDS011;3967;48.702;9.326;2023-06-04T14:07:54;4.10;;;2.30;;
7843;SDS011;3967;48.702;9.326;2023-06-04T14:10:22;5.60;;;2.47;;
7843;SDS011;3967;48.702;9.326;2023-06-04T14:12:49;4.50;;;2.58;;
7843;SDS011;3967;48.702;9.326;2023-06-04T14:15:16;2.75;;;2.53;;
7843;SDS011;3967;48.702;9.326;2023-06-04T14:17:43;2.90;;;2.42;;
7843;SDS011;3967;48.702;9.326;2023-06-04T14:20:10;2.88;;;2.63;;
7843;SDS011;3967;48.702;9.326;2023-06-04T14:22:37;3.00;;;2.78;;
7843;SDS011;3967;48.702;9.326;2023-06-04T14:25:04;2.45;;;2.25;;
7843;SDS011;3967;48.702;9.326;2023-06-04T14:27:32;4.90;;;2.38;;
7843;SDS011;3967;48.702;9.326;2023-06-04T14:30:03;2.65;;;2.45;;
7843;SDS011;3967;48.702;9.326;2023-06-04T14:32:31;3.63;;;2.60;;
7843;SDS011;3967;48.702;9.326;2023-06-04T14:35:00;2.60;;;2.40;;
7843;SDS011;3967;48.702;9.326;2023-06-04T14:37:27;2.75;;;2.55;;
7843;SDS011;3967;48.702;9.326;2023-06-04T14:39:53;3.72;;;2.55;;
7843;SDS011;3967;48.702;9.326;2023-06-04T14:42:20;3.05;;;2.55;;
7843;SDS011;3967;48.702;9.326;2023-06-04T14:44:47;2.72;;;2.38;;
7843;SDS011;3967;48.702;9.326;2023-06-04T14:47:14;3.72;;;2.63;;
7843;SDS011;3967;48.702;9.326;2023-06-04T14:49:41;2.90;;;2.60;;
7843;SDS011;3967;48.702;9.326;2023-06-04T14:52:08;3.53;;;2.33;;
7843;SDS011;3967;48.702;9.326;2023-06-04T14:54:35;2.85;;;2.63;;
7843;SDS011;3967;48.702;9.326;2023-06-04T14:57:02;2.63;;;2.40;;
7843;SDS011;3967;48.702;9.326;2023-06-04T14:59:29;2.97;;;2.78;;
7843;SDS011;3967;48.702;9.326;2023-06-04T15:01:56;2.90;;;2.22;;
7843;SDS011;3967;48.702;9.326;2023-06-04T15:04:23;5.15;;;3.78;;
7843;SDS011;3967;48.702;9.326;2023-06-04T15:06:50;3.40;;;3.10;;
7843;SDS011;3967;48.702;9.326;2023-06-04T15:09:16;3.33;;;3.00;;
7843;SDS011;3967;48.702;9.326;2023-06-04T15:11:43;4.22;;;2.95;;
7843;SDS011;3967;48.702;9.326;2023-06-04T15:14:10;3.90;;;3.60;;
7843;SDS011;3967;48.702;9.326;2023-06-04T15:16:37;3.90;;;2.85;;
7843;SDS011;3967;48.702;9.326;2023-06-04T15:19:03;2.60;;;2.40;;
7843;SDS011;3967;48.702;9.326;2023-06-04T15:21:30;4.60;;;4.20;;
7843;SDS011;3967;48.702;9.326;2023-06-04T15:23:57;7.95;;;6.95;;
7843;SDS011;3967;48.702;9.326;2023-06-04T15:26:24;2.90;;;2.70;;
7843;SDS011;3967;48.702;9.326;2023-06-04T15:28:53;4.75;;;4.03;;